Time;durP1;ratioP1;P1;durP2;ratioP2;P2;SDS_P1;SDS_P2;PMS_P1;PMS_P2;Temp;Humidity;BMP_temperature;BMP_pressure;BME280_temperature;BME280_humidity;BME280_pressure;Samples;Min_cycle;Max_cycle;Signal;HPM_P1;HPM_P2
2022/08/07 00:01:19;;;;;;;4.68;4.47;;;;;;;12.68;86.52;102261.78;6054706;23;20038;-71
2022/08/07 00:04:16;;;;;;;5.60;5.40;;;;;;;13.03;87.09;102311.47;6070053;23;20034;-71
2022/08/07 00:06:50;;;;;;;4.95;4.75;;;;;;;12.97;87.49;102307.31;6047150;23;20304;-70
2022/08/07 00:09:20;;;;;;;4.50;4.30;;;;;;;12.93;87.79;102305.69;6094435;23;20025;-71
2022/08/07 00:11:51;;;;;;;5.60;5.40;;;;;;;12.53;88.38;102249.16;6096365;23;20025;-72
2022/08/07 00:14:29;;;;;;;4.60;4.40;;;;;;;11.77;88.67;102138.56;6096106;23;20022;-71
2022/08/07 00:17:19;;;;;;;4.72;4.53;;;;;;;12.74;89.10;102298.44;6074021;23;20155;-71
2022/08/07 00:19:52;;;;;;;7.38;7.05;;;;;;;12.71;90.10;102306.47;6004002;23;20376;-72
2022/08/07 00:22:29;;;;;;;4.72;4.53;;;;;;;12.72;89.40;102292.34;6086295;23;20052;-72
2022/08/07 00:25:06;;;;;;;5.28;4.97;;;;;;;12.70;90.66;102288.06;6073340;23;20022;-71
2022/08/07 00:27:43;;;;;;;5.72;5.50;;;;;;;12.64;91.65;102277.75;6078840;23;20025;-71
2022/08/07 00:30:20;;;;;;;4.90;4.70;;;;;;;12.59;91.54;102283.19;6082776;23;20010;-70
2022/08/07 00:32:57;;;;;;;4.70;4.50;;;;;;;12.09;91.73;102209.47;6061359;23;20036;-72
2022/08/07 00:35:29;;;;;;;4.85;4.65;;;;;;;12.52;91.72;102279.03;6087102;23;20081;-73
2022/08/07 00:38:05;;;;;;;4.70;4.50;;;;;;;12.47;91.48;102279.22;5970890;23;20410;-73
2022/08/07 00:40:55;;;;;;;4.70;4.50;;;;;;;12.43;91.92;102277.59;6004094;23;20007;-71
2022/08/07 00:43:25;;;;;;;4.45;4.25;;;;;;;11.65;92.27;102160.03;5990429;23;20023;-72
2022/08/07 00:46:15;;;;;;;4.65;4.45;;;;;;;12.41;93.21;102268.00;5990298;23;20031;-74
2022/08/07 00:48:53;;;;;;;5.63;5.43;;;;;;;12.38;93.65;102272.47;5986741;23;20011;-73
2022/08/07 00:51:21;;;;;;;4.85;4.55;;;;;;;12.34;94.01;102268.22;5986810;23;20041;-74
2022/08/07 00:54:08;;;;;;;4.80;4.60;;;;;;;12.32;93.78;102266.56;5993225;23;20123;-75
2022/08/07 00:56:39;;;;;;;4.60;4.40;;;;;;;11.97;94.65;102208.97;6063142;23;20022;-74
2022/08/07 00:59:06;;;;;;;4.75;4.45;;;;;;;12.28;94.10;102262.31;6075667;23;20018;-74
2022/08/07 01:01:33;;;;;;;4.65;4.45;;;;;;;12.10;94.13;102234.84;6091266;23;20099;-73
2022/08/07 01:04:10;;;;;;;4.68;4.47;;;;;;;12.22;94.34;102260.75;6066945;23;20074;-74
2022/08/07 01:06:47;;;;;;;5.85;5.60;;;;;;;12.18;94.82;102264.41;6077457;23;20225;-73
2022/08/07 01:09:15;;;;;;;4.60;4.40;;;;;;;12.13;95.09;102251.41;6090081;23;20094;-74
2022/08/07 01:12:08;;;;;;;5.10;4.90;;;;;;;12.09;95.61;102249.78;6106653;23;20013;-74
2022/08/07 01:15:01;;;;;;;4.95;4.75;;;;;;;10.83;95.85;102061.94;6055124;23;20067;-73
2022/08/07 01:17:36;;;;;;;4.63;4.43;;;;;;;11.11;96.80;102074.19;6114513;23;20438;-76
2022/08/07 01:20:11;;;;;;;4.70;4.50;;;;;;;12.03;96.41;102239.47;6084461;23;20028;-75
2022/08/07 01:22:43;;;;;;;5.38;5.18;;;;;;;11.25;97.11;102113.16;6102180;23;20020;-76
2022/08/07 01:25:39;;;;;;;4.70;4.50;;;;;;;12.05;96.27;102255.22;6074141;23;20156;-77
2022/08/07 01:28:22;;;;;;;4.90;4.70;;;;;;;11.68;96.54;102187.97;6074730;23;20025;-73
2022/08/07 01:30:51;;;;;;;5.13;4.93;;;;;;;11.83;96.26;102226.94;6100860;23;20030;-74
2022/08/07 01:33:20;;;;;;;5.57;5.38;;;;;;;11.75;96.73;102231.59;6100697;23;20040;-74
2022/08/07 01:35:48;;;;;;;5.55;5.35;;;;;;;11.89;96.06;102239.94;6087079;23;20020;-73
2022/08/07 01:38:21;;;;;;;4.40;4.20;;;;;;;11.45;97.45;102173.81;6077687;23;20030;-75
2022/08/07 01:40:58;;;;;;;4.65;4.45;;;;;;;11.77;97.34;102233.25;6061284;23;20012;-73
2022/08/07 01:43:26;;;;;;;4.80;4.60;;;;;;;11.67;97.77;102223.94;6110134;23;20132;-74
2022/08/07 01:46:01;;;;;;;5.65;5.43;;;;;;;11.52;98.44;102201.63;6076014;23;20089;-74
2022/08/07 01:48:28;;;;;;;4.50;4.30;;;;;;;10.38;98.28;102010.81;6042146;23;20243;-74
2022/08/07 01:51:03;;;;;;;4.47;4.28;;;;;;;11.65;99.58;102227.56;6051359;23;20010;-75
2022/08/07 01:53:54;;;;;;;5.32;5.13;;;;;;;10.96;100.00;102126.31;6086377;23;20100;-75
2022/08/07 01:56:53;;;;;;;5.22;5.03;;;;;;;11.30;99.01;102195.34;6088190;23;20435;-74
2022/08/07 01:59:23;;;;;;;4.40;4.20;;;;;;;11.54;99.97;102236.63;6106171;23;20031;-76
2022/08/07 02:02:02;;;;;;;4.95;4.70;;;;;;;11.51;100.00;102230.63;6076818;23;20026;-72
2022/08/07 02:04:40;;;;;;;4.50;4.30;;;;;;;11.44;100.00;102232.56;6058914;23;20446;-74
2022/08/07 02:07:27;;;;;;;4.47;4.28;;;;;;;11.38;100.00;102241.50;6066857;23;20393;-75
2022/08/07 02:10:21;;;;;;;4.50;4.30;;;;;;;11.33;100.00;102229.41;6089773;23;20018;-75
2022/08/07 02:12:50;;;;;;;5.55;5.35;;;;;;;11.29;100.00;102240.94;6050494;23;20021;-75
2022/08/07 02:15:22;;;;;;;4.30;4.10;;;;;;;11.26;100.00;102233.97;6094431;23;20033;-75
2022/08/07 02:17:56;;;;;;;5.20;5.00;;;;;;;10.41;100.00;102095.59;6082238;23;20022;-74
2022/08/07 02:20:26;;;;;;;4.40;4.20;;;;;;;11.17;100.00;102226.41;6088477;23;20041;-73
2022/08/07 02:23:00;;;;;;;4.88;4.68;;;;;;;11.12;100.00;102228.28;6048534;23;20270;-74
2022/08/07 02:25:36;;;;;;;4.40;4.20;;;;;;;10.34;100.00;102097.50;6102411;23;20036;-73
2022/08/07 02:28:43;;;;;;;4.50;4.30;;;;;;;11.06;100.00;102221.44;6071490;23;20018;-75
2022/08/07 02:31:11;;;;;;;4.40;4.20;;;;;;;11.01;100.00;102225.13;6069928;23;20014;-75
2022/08/07 02:33:56;;;;;;;4.72;4.53;;;;;;;10.93;100.00;102223.56;6071719;23;20025;-74
2022/08/07 02:36:38;;;;;;;5.05;4.85;;;;;;;10.51;100.00;102144.28;6055476;23;20269;-75
2022/08/07 02:39:08;;;;;;;4.38;4.18;;;;;;;10.90;100.00;102221.03;6074394;23;20100;-74
2022/08/07 02:41:59;;;;;;;4.70;4.50;;;;;;;10.87;100.00;102225.53;6047018;23;20044;-75
2022/08/07 02:44:28;;;;;;;4.40;4.20;;;;;;;10.55;100.00;102166.91;6083131;23;20018;-73
2022/08/07 02:47:02;;;;;;;4.65;4.45;;;;;;;10.82;100.00;102214.28;6090250;23;20033;-73
2022/08/07 02:49:29;;;;;;;4.30;4.10;;;;;;;10.79;100.00;102212.63;6102124;23;20041;-75
2022/08/07 02:52:58;;;;;;;4.40;4.20;;;;;;;10.77;100.00;102211.81;6085352;23;20029;-74
2022/08/07 02:55:38;;;;;;;4.50;4.30;;;;;;;10.74;100.00;102212.75;6061478;23;20046;-73
2022/08/07 02:58:27;;;;;;;4.20;4.00;;;;;;;10.72;100.00;102213.69;6081193;23;20056;-75
2022/08/07 03:01:00;;;;;;;4.60;4.40;;;;;;;10.67;100.00;102226.94;6086686;23;20499;-74
2022/08/07 03:03:41;;;;;;;4.40;4.20;;;;;;;10.66;100.00;102219.97;6082825;23;20284;-75
2022/08/07 03:06:17;;;;;;;4.40;4.20;;;;;;;10.65;100.00;102204.28;6081487;23;20079;-77
2022/08/07 03:09:00;;;;;;;4.22;4.03;;;;;;;10.61;100.00;102216.63;6097374;23;20010;-74
2022/08/07 03:11:29;;;;;;;4.50;4.30;;;;;;;10.60;100.00;102207.00;6056949;23;20173;-73
2022/08/07 03:14:03;;;;;;;4.60;4.40;;;;;;;10.58;100.00;102201.81;6059000;23;20015;-75
2022/08/07 03:16:35;;;;;;;4.60;4.40;;;;;;;10.56;100.00;102208.00;6022642;23;20066;-71
2022/08/07 03:19:04;;;;;;;4.30;4.10;;;;;;;10.53;100.00;102202.84;6067321;23;20385;-70
2022/08/07 03:21:34;;;;;;;4.20;4.00;;;;;;;10.51;100.00;102202.03;6038013;23;20348;-71
2022/08/07 03:24:02;;;;;;;4.55;4.35;;;;;;;10.49;100.00;102220.44;6046232;23;20018;-72
2022/08/07 03:26:50;;;;;;;5.35;5.15;;;;;;;10.25;100.00;102169.47;6054632;23;20026;-74
2022/08/07 03:29:32;;;;;;;4.35;4.15;;;;;;;10.45;100.00;102202.22;6058397;23;20472;-71
2022/08/07 03:32:02;;;;;;;4.43;4.22;;;;;;;10.47;100.00;102189.91;6031697;23;20044;-70
2022/08/07 03:34:50;;;;;;;4.40;4.20;;;;;;;10.42;100.00;102186.53;6063851;23;20038;-70
2022/08/07 03:37:38;;;;;;;5.00;4.80;;;;;;;10.36;100.00;102188.44;6042526;23;20057;-71
2022/08/07 03:40:20;;;;;;;4.22;4.03;;;;;;;10.24;100.00;102185.22;6059894;23;20073;-71
2022/08/07 03:42:49;;;;;;;5.05;4.85;;;;;;;10.30;100.00;102193.84;6029466;23;20077;-72
2022/08/07 03:45:18;;;;;;;5.47;5.28;;;;;;;10.28;100.00;102187.72;6053165;23;20399;-71
2022/08/07 03:48:00;;;;;;;4.60;4.40;;;;;;;9.98;100.00;102143.06;6033899;23;20011;-71
2022/08/07 03:50:28;;;;;;;4.20;4.00;;;;;;;10.12;100.00;102162.81;6064690;23;20025;-71
2022/08/07 03:52:58;;;;;;;4.47;4.28;;;;;;;10.23;100.00;102189.63;6060679;23;20022;-71
2022/08/07 03:55:50;;;;;;;5.95;5.65;;;;;;;9.49;100.00;102073.56;6033476;23;20016;-70
2022/08/07 03:58:38;;;;;;;4.35;4.15;;;;;;;8.94;100.00;102006.81;6060373;23;20040;-72
2022/08/07 04:01:30;;;;;;;4.43;4.22;;;;;;;9.86;100.00;102138.16;6030410;23;20447;-71
2022/08/07 04:04:02;;;;;;;4.50;4.30;;;;;;;10.12;100.00;102184.69;6042649;23;20022;-71
2022/08/07 04:06:44;;;;;;;4.70;4.50;;;;;;;9.96;100.00;102162.34;6058494;23;20018;-70
2022/08/07 04:09:12;;;;;;;4.97;4.68;;;;;;;10.07;100.00;102189.16;6050811;23;20018;-70
2022/08/07 04:11:44;;;;;;;4.47;4.28;;;;;;;10.07;100.00;102188.31;6043256;23;20026;-71
2022/08/07 04:14:33;;;;;;;4.95;4.53;;;;;;;9.68;100.00;102112.38;6043983;23;20475;-71
2022/08/07 04:17:10;;;;;;;4.72;4.53;;;;;;;10.10;100.00;102154.13;6058668;23;20033;-70
2022/08/07 04:19:57;;;;;;;4.30;4.10;;;;;;;10.02;100.00;102059.03;6046549;23;20010;-71
2022/08/07 04:22:24;;;;;;;4.50;4.30;;;;;;;11.04;100.00;102165.47;6059906;23;20030;-73
2022/08/07 04:24:57;;;;;;;4.30;4.10;;;;;;;11.10;100.00;102104.84;6045746;23;20077;-71
2022/08/07 04:27:24;;;;;;;4.50;4.30;;;;;;;11.92;100.00;102147.72;6041660;23;20066;-70
2022/08/07 04:29:53;;;;;;;4.60;4.40;;;;;;;12.56;100.00;102157.72;6049675;23;20022;-71
2022/08/07 04:32:29;;;;;;;4.60;4.40;;;;;;;13.14;100.00;102172.22;6043619;23;20121;-71
2022/08/07 04:35:03;;;;;;;4.65;4.45;;;;;;;12.86;96.32;102036.28;6051507;23;20027;-71
2022/08/07 04:37:33;;;;;;;4.65;4.45;;;;;;;13.98;92.86;102151.25;6058015;23;20083;-70
2022/08/07 04:40:21;;;;;;;4.97;4.68;;;;;;;14.16;89.52;102158.38;6031219;23;20010;-71
2022/08/07 04:42:55;;;;;;;4.97;4.78;;;;;;;13.43;87.46;101988.28;6030121;23;20471;-70
2022/08/07 04:45:52;;;;;;;4.75;4.55;;;;;;;14.44;86.49;102106.97;6044177;23;20090;-72
2022/08/07 04:48:39;;;;;;;4.70;4.50;;;;;;;14.86;84.21;102103.25;6058098;23;20187;-71
2022/08/07 04:51:26;;;;;;;4.65;4.45;;;;;;;14.88;82.58;102096.97;6034121;23;20623;-71
2022/08/07 04:54:15;;;;;;;;;;;;;;;15.06;81.72;102134.88;6027836;23;20274;-73
2022/08/07 04:56:48;;;;;;;6.07;5.78;;;;;;;15.30;80.54;102142.56;6056579;23;19914;-71
2022/08/07 05:00:13;;;;;;;5.97;5.70;;;;;;;15.96;79.81;102123.38;6049020;23;20037;-70
2022/08/07 05:03:23;;;;;;;6.22;5.93;;;;;;;16.58;76.11;102126.25;6059067;23;20070;-71
2022/08/07 05:06:17;;;;;;;5.05;4.85;;;;;;;16.20;72.98;101959.66;6047766;23;20062;-70
2022/08/07 05:09:03;;;;;;;6.15;5.85;;;;;;;17.09;71.81;102050.03;6057756;23;20456;-70
2022/08/07 05:11:38;;;;;;;5.10;4.90;;;;;;;17.67;69.79;102087.38;6077348;23;20366;-70
2022/08/07 05:14:31;;;;;;;5.18;4.97;;;;;;;17.57;68.84;102039.28;6086581;23;20044;-71
2022/08/07 05:17:19;;;;;;;5.45;5.18;;;;;;;18.50;67.11;102114.16;6089336;23;20022;-70
2022/08/07 05:20:10;;;;;;;5.80;5.50;;;;;;;17.88;66.60;102003.78;6105028;23;20188;-71
2022/08/07 05:22:40;;;;;;;5.30;5.10;;;;;;;19.07;65.71;102106.09;6070256;23;20040;-70
2022/08/07 05:25:09;;;;;;;5.80;5.40;;;;;;;19.18;63.86;102110.69;6095456;23;20025;-70
2022/08/07 05:27:52;;;;;;;6.00;5.70;;;;;;;19.15;62.73;102112.72;6091259;23;20010;-70
2022/08/07 05:30:41;;;;;;;6.97;6.57;;;;;;;18.87;63.29;102071.97;6083847;23;20256;-70
2022/08/07 05:33:09;;;;;;;5.85;5.47;;;;;;;19.04;62.60;102071.72;6086223;23;20230;-70
2022/08/07 05:35:38;;;;;;;6.32;6.03;;;;;;;19.59;62.76;102125.72;6064731;23;20039;-71
2022/08/07 05:38:09;;;;;;;5.88;5.57;;;;;;;19.85;61.54;102057.38;6090147;23;20037;-71
2022/08/07 05:40:37;;;;;;;6.22;5.93;;;;;;;20.25;60.21;102110.53;6065554;23;20030;-70
2022/08/07 05:43:19;;;;;;;5.80;5.50;;;;;;;20.32;58.79;102113.59;6100476;23;20546;-71
2022/08/07 05:46:06;;;;;;;5.75;5.45;;;;;;;19.91;58.95;102040.94;6110561;23;20014;-75
2022/08/07 05:48:34;;;;;;;6.28;5.97;;;;;;;19.82;59.75;102001.63;6098609;23;20141;-71
2022/08/07 05:51:01;;;;;;;5.80;5.50;;;;;;;20.25;58.18;102115.88;6082841;23;20467;-70
2022/08/07 05:53:29;;;;;;;6.00;5.70;;;;;;;20.15;57.95;102122.81;6068111;23;20092;-71
2022/08/07 05:56:20;;;;;;;5.93;5.63;;;;;;;20.24;58.36;102127.47;6087981;23;20053;-71
2022/08/07 05:58:58;;;;;;;6.22;5.93;;;;;;;20.44;58.69;102120.72;6049033;23;20044;-70
2022/08/07 06:01:27;;;;;;;5.65;5.35;;;;;;;20.18;56.93;102125.22;6085208;23;20144;-71
2022/08/07 06:04:03;;;;;;;5.55;5.32;;;;;;;20.13;57.92;102122.06;6087438;23;20199;-70
2022/08/07 06:06:34;;;;;;;5.80;5.50;;;;;;;20.12;57.50;102133.66;6087306;23;20024;-69
2022/08/07 06:09:03;;;;;;;5.90;5.60;;;;;;;19.86;58.77;102138.97;6096212;23;20101;-71
2022/08/07 06:11:32;;;;;;;5.90;5.50;;;;;;;19.09;61.95;102160.06;6086108;23;20026;-71
2022/08/07 06:13:59;;;;;;;6.05;5.75;;;;;;;18.72;64.56;102166.84;6054012;23;20081;-70
2022/08/07 06:16:43;;;;;;;7.32;6.72;;;;;;;17.53;65.16;102035.94;6090399;23;20138;-71
2022/08/07 06:19:16;;;;;;;5.70;5.40;;;;;;;17.79;67.50;102136.22;6083900;23;20091;-71
2022/08/07 06:22:07;;;;;;;7.32;7.03;;;;;;;17.27;66.62;102064.03;6066720;23;22071;-70
2022/08/07 06:24:51;;;;;;;5.50;5.30;;;;;;;15.97;66.38;101862.94;6069210;23;20278;-71
2022/08/07 06:27:26;;;;;;;5.47;5.22;;;;;;;17.71;67.02;102176.50;6048527;23;20301;-72
2022/08/07 06:30:13;;;;;;;6.10;5.80;;;;;;;17.68;67.22;102185.50;6076053;23;20015;-71
2022/08/07 06:33:00;;;;;;;5.60;5.40;;;;;;;16.81;69.38;102125.00;6086382;23;20253;-71
2022/08/07 06:35:28;;;;;;;5.70;5.40;;;;;;;17.06;69.04;102108.59;6076139;23;20015;-73
2022/08/07 06:38:11;;;;;;;5.60;5.30;;;;;;;17.20;69.58;102142.28;6082138;23;20369;-71
2022/08/07 06:40:50;;;;;;;7.40;6.85;;;;;;;17.58;67.59;102180.81;6075855;23;20017;-71
2022/08/07 06:43:21;;;;;;;5.85;5.47;;;;;;;17.19;67.54;102110.53;6084782;23;20030;-72
2022/08/07 06:45:48;;;;;;;6.88;6.57;;;;;;;17.65;67.47;102175.06;6059603;23;20041;-71
2022/08/07 06:48:15;;;;;;;6.85;6.53;;;;;;;17.64;67.08;102145.94;6065070;23;20017;-72
2022/08/07 06:50:53;;;;;;;6.05;5.75;;;;;;;17.84;65.46;102164.25;6090449;23;20232;-72
2022/08/07 06:53:24;;;;;;;5.55;5.25;;;;;;;17.72;65.48;102141.91;6069106;23;20134;-69
2022/08/07 06:56:13;;;;;;;5.72;5.35;;;;;;;17.73;65.27;102111.72;6086868;23;20008;-71
2022/08/07 06:58:42;;;;;;;6.50;6.15;;;;;;;17.86;64.83;102125.19;6076104;23;20021;-71
2022/08/07 07:01:32;;;;;;;5.40;5.18;;;;;;;18.09;64.01;102153.00;6080132;23;20077;-72
2022/08/07 07:04:15;;;;;;;5.70;5.40;;;;;;;18.14;63.46;102136.75;6091403;23;20022;-71
2022/08/07 07:07:00;;;;;;;5.30;5.10;;;;;;;18.27;64.84;102161.66;6086013;23;20443;-71
2022/08/07 07:09:29;;;;;;;5.43;5.15;;;;;;;18.32;65.31;102156.91;6067379;23;20014;-71
2022/08/07 07:12:07;;;;;;;5.40;5.20;;;;;;;18.51;64.47;102151.28;6084274;23;20025;-69
2022/08/07 07:14:56;;;;;;;6.47;6.18;;;;;;;18.65;62.90;102149.59;6101648;23;20006;-71
2022/08/07 07:17:48;;;;;;;5.20;5.00;;;;;;;18.72;62.75;102154.41;6074312;23;20014;-71
2022/08/07 07:20:24;;;;;;;5.50;5.20;;;;;;;17.90;62.82;102019.59;6097052;23;20021;-70
2022/08/07 07:22:53;;;;;;;6.60;6.20;;;;;;;18.53;63.37;102152.06;6083937;23;20014;-71
2022/08/07 07:25:42;;;;;;;6.70;6.40;;;;;;;18.80;63.17;102150.44;6088715;23;20050;-70
2022/08/07 07:28:36;;;;;;;5.72;5.43;;;;;;;18.80;62.79;102150.44;6079416;23;20499;-72
2022/08/07 07:31:46;;;;;;;5.45;5.25;;;;;;;19.10;61.07;102159.13;6077758;23;20093;-70
2022/08/07 07:34:17;;;;;;;5.50;5.30;;;;;;;19.28;60.18;102137.56;6071452;23;20010;-71
2022/08/07 07:36:48;;;;;;;6.60;6.30;;;;;;;18.71;58.65;102032.19;6092412;23;20147;-73
2022/08/07 07:39:22;;;;;;;5.97;5.70;;;;;;;19.13;57.39;102145.59;6081168;23;20097;-71
2022/08/07 07:41:51;;;;;;;6.63;6.32;;;;;;;18.63;57.45;102047.78;6075983;23;20028;-70
2022/08/07 07:44:42;;;;;;;6.80;6.40;;;;;;;19.16;57.77;102138.38;6051778;23;20042;-71
2022/08/07 07:47:11;;;;;;;5.40;5.10;;;;;;;18.86;57.54;102083.53;6068522;23;20099;-71
2022/08/07 07:49:51;;;;;;;7.07;6.78;;;;;;;19.41;58.21;102135.78;6076042;23;20109;-71
2022/08/07 07:52:40;;;;;;;6.82;6.53;;;;;;;19.49;56.50;102133.47;6081561;23;20083;-70
2022/08/07 07:55:08;;;;;;;5.43;5.22;;;;;;;19.48;55.98;102128.25;6102016;23;20029;-72
2022/08/07 07:57:39;;;;;;;5.75;5.45;;;;;;;19.73;57.63;102116.81;6085302;23;20029;-71
2022/08/07 08:00:19;;;;;;;5.80;5.50;;;;;;;19.82;56.32;102108.19;6089164;23;20029;-71
2022/08/07 08:03:06;;;;;;;5.20;5.00;;;;;;;20.10;56.85;102108.94;6067758;23;20010;-70
2022/08/07 08:05:40;;;;;;;5.43;5.22;;;;;;;20.03;55.46;102065.03;6065955;23;20089;-70
2022/08/07 08:08:23;;;;;;;5.70;5.43;;;;;;;19.88;53.84;102065.13;6070133;23;20083;-72
2022/08/07 08:11:06;;;;;;;5.90;5.60;;;;;;;20.21;54.62;102110.88;6102957;23;20481;-71
2022/08/07 08:13:38;;;;;;;6.15;5.85;;;;;;;20.26;54.44;102112.22;6066290;23;20197;-71
2022/08/07 08:16:26;;;;;;;5.63;5.40;;;;;;;20.44;51.69;102103.88;6074854;23;20430;-72
2022/08/07 08:18:58;;;;;;;6.00;5.70;;;;;;;20.42;49.78;102084.47;6047680;23;20010;-73
2022/08/07 08:27:51;;;;;;;6.88;6.57;;;;;;;20.97;48.35;102109.84;6084059;23;20105;-72
2022/08/07 08:30:32;;;;;;;5.70;5.43;;;;;;;20.26;49.40;101959.41;6078361;23;20049;-74
2022/08/07 08:33:15;;;;;;;5.40;5.20;;;;;;;20.26;47.45;101911.44;6077806;23;20026;-75
2022/08/07 08:35:47;;;;;;;6.32;6.03;;;;;;;20.97;45.12;102024.44;6084470;23;20462;-78
2022/08/07 08:38:36;;;;;;;5.57;5.38;;;;;;;19.80;46.38;101841.03;6104428;23;20029;-76
2022/08/07 08:41:25;;;;;;;5.50;5.30;;;;;;;21.42;43.70;102098.47;6057742;23;20015;-73
2022/08/07 08:44:36;;;;;;;5.70;5.30;;;;;;;21.30;43.29;102094.91;6095486;23;20022;-74
2022/08/07 08:47:35;;;;;;;5.30;5.10;;;;;;;21.73;43.11;102091.69;6082359;23;20014;-75
2022/08/07 08:50:44;;;;;;;6.38;6.07;;;;;;;21.95;41.82;102082.84;6093498;23;20377;-75
2022/08/07 08:53:34;;;;;;;5.13;4.93;;;;;;;20.90;40.82;101991.16;6055184;23;20026;-70
2022/08/07 08:56:10;;;;;;;5.60;5.40;;;;;;;21.97;42.03;102093.38;6076702;23;20042;-75
2022/08/07 08:58:58;;;;;;;6.90;6.32;;;;;;;21.90;39.91;102088.53;6051243;23;20030;-76
2022/08/07 09:01:50;;;;;;;5.30;5.10;;;;;;;22.15;40.97;102080.41;6095796;23;20029;-71
2022/08/07 09:04:28;;;;;;;5.32;5.13;;;;;;;22.05;40.58;102058.88;6078672;23;20017;-72
2022/08/07 09:07:15;;;;;;;5.90;5.60;;;;;;;22.31;40.20;102091.59;6064977;23;20068;-73
2022/08/07 09:10:09;;;;;;;6.38;6.07;;;;;;;22.62;40.37;102073.94;6055935;23;20030;-73
2022/08/07 09:13:08;;;;;;;6.07;5.78;;;;;;;22.26;38.62;102019.75;6072401;23;20019;-74
2022/08/07 09:15:50;;;;;;;6.00;5.72;;;;;;;22.48;39.22;102036.75;6076787;23;20030;-68
2022/08/07 09:18:56;;;;;;;6.65;6.35;;;;;;;22.43;38.06;102077.25;6084192;23;20034;-68
2022/08/07 09:21:29;;;;;;;5.35;5.15;;;;;;;22.38;38.51;102078.59;6082656;23;20198;-68
2022/08/07 09:24:50;;;;;;;5.28;5.05;;;;;;;22.50;37.59;102075.78;6066251;23;20038;-68
2022/08/07 09:27:45;;;;;;;5.60;5.40;;;;;;;22.50;36.22;102077.59;6048319;23;20026;-69
2022/08/07 09:30:40;;;;;;;5.40;5.20;;;;;;;22.01;37.90;101972.75;6082461;23;20042;-69
2022/08/07 09:33:24;;;;;;;5.18;4.97;;;;;;;22.74;36.70;102064.06;6072780;23;20033;-69
2022/08/07 09:36:17;;;;;;;5.20;5.00;;;;;;;22.84;35.51;102073.00;6074663;23;20411;-69
2022/08/07 09:38:57;;;;;;;6.28;5.97;;;;;;;23.03;35.77;102072.38;6087127;23;20075;-71
2022/08/07 09:41:53;;;;;;;5.38;5.18;;;;;;;23.20;36.49;102014.72;6073748;23;20083;-69
2022/08/07 09:44:47;;;;;;;5.50;5.30;;;;;;;23.70;36.25;102046.19;6080454;23;20554;-68
2022/08/07 09:47:50;;;;;;;5.88;5.63;;;;;;;23.47;36.33;102062.41;6070305;23;20178;-69
2022/08/07 09:50:47;;;;;;;5.30;5.10;;;;;;;23.29;34.81;102055.94;6081661;23;20016;-69
2022/08/07 09:53:21;;;;;;;5.47;5.28;;;;;;;23.01;35.55;102082.34;6088216;23;20009;-68
2022/08/07 09:56:04;;;;;;;6.38;6.07;;;;;;;23.06;35.00;102057.88;6061283;23;20038;-69
2022/08/07 09:58:56;;;;;;;5.30;5.10;;;;;;;23.08;34.83;102069.31;6058474;23;20021;-69
2022/08/07 10:01:33;;;;;;;5.50;5.30;;;;;;;23.20;35.28;102056.72;6081332;23;20026;-69
2022/08/07 10:04:53;;;;;;;5.40;5.20;;;;;;;23.63;35.84;102042.31;6079321;23;20030;-69
2022/08/07 10:07:33;;;;;;;5.45;5.25;;;;;;;23.56;34.24;102049.22;6073621;23;20021;-69
2022/08/07 10:10:36;;;;;;;5.65;5.35;;;;;;;23.21;35.06;102053.94;6094783;23;20037;-69
2022/08/07 10:13:42;;;;;;;5.30;5.10;;;;;;;23.48;34.71;102041.81;6072950;23;20002;-70
2022/08/07 10:16:42;;;;;;;5.40;5.20;;;;;;;23.40;33.88;101983.53;6055040;23;20030;-69
2022/08/07 10:19:48;;;;;;;5.63;5.35;;;;;;;23.57;33.15;102050.91;6073410;23;20022;-69
2022/08/07 10:22:52;;;;;;;5.50;5.30;;;;;;;23.28;34.15;102052.41;6065743;23;20444;-69
2022/08/07 10:25:27;;;;;;;5.68;5.47;;;;;;;23.59;32.89;102051.59;6072937;23;20022;-69
2022/08/07 10:28:36;;;;;;;5.50;5.30;;;;;;;23.90;33.55;102033.75;6057881;23;20025;-71
2022/08/07 10:31:14;;;;;;;5.50;5.30;;;;;;;24.40;35.03;102014.13;6075378;23;20026;-69
2022/08/07 10:33:56;;;;;;;6.82;6.53;;;;;;;24.56;31.87;102025.22;6074070;23;20018;-70
2022/08/07 10:36:50;;;;;;;6.53;6.22;;;;;;;24.18;32.16;102037.53;6061575;23;20771;-70
2022/08/07 10:39:33;;;;;;;5.38;5.18;;;;;;;24.23;32.06;102026.38;6083001;23;20038;-69
2022/08/07 10:42:22;;;;;;;;;;;;;;;23.33;30.87;101875.22;6070475;23;20012;-70
2022/08/07 10:45:16;;;;;;;5.78;5.47;;;;;;;24.34;31.98;102020.06;6071068;23;19975;-70
2022/08/07 10:47:54;;;;;;;6.70;6.40;;;;;;;24.19;31.83;102031.16;6082174;23;20022;-69
2022/08/07 10:50:41;;;;;;;5.70;5.40;;;;;;;24.29;31.20;102001.66;6073544;23;20014;-69
2022/08/07 10:53:29;;;;;;;5.40;5.20;;;;;;;24.44;32.18;102015.56;6063868;23;20354;-69
2022/08/07 10:56:15;;;;;;;5.40;5.20;;;;;;;24.28;32.20;102021.44;6073831;23;20022;-69
2022/08/07 10:59:17;;;;;;;6.22;5.93;;;;;;;24.27;32.64;102022.44;6078459;23;20632;-70
2022/08/07 11:02:00;;;;;;;6.60;6.30;;;;;;;24.27;31.51;102020.59;6070494;23;20495;-70
2022/08/07 11:05:00;;;;;;;6.57;6.28;;;;;;;24.11;31.96;101977.34;6080933;23;20451;-69
2022/08/07 11:07:39;;;;;;;5.88;5.63;;;;;;;23.85;33.08;101944.81;6067755;23;20014;-70
2022/08/07 11:10:38;;;;;;;5.63;5.32;;;;;;;23.47;32.81;101868.63;6083031;23;20021;-70
2022/08/07 11:13:43;;;;;;;5.25;5.05;;;;;;;24.42;32.31;101969.22;6073692;23;20097;-70
2022/08/07 11:16:35;;;;;;;5.65;5.40;;;;;;;24.57;33.36;101997.34;6071906;23;20030;-69
2022/08/07 11:19:23;;;;;;;5.57;5.35;;;;;;;24.93;33.60;101989.59;6068748;23;20186;-70
2022/08/07 11:22:06;;;;;;;5.50;5.30;;;;;;;24.92;32.36;101997.78;6073012;23;20380;-70
2022/08/07 11:25:04;;;;;;;5.70;5.50;;;;;;;24.57;32.29;102004.56;6070465;23;20084;-70
2022/08/07 11:27:46;;;;;;;5.53;5.30;;;;;;;23.60;31.57;101830.88;6066200;23;20479;-70
2022/08/07 11:30:50;;;;;;;5.55;5.28;;;;;;;24.77;31.17;102000.91;6072299;23;20862;-70
2022/08/07 11:33:53;;;;;;;5.70;5.40;;;;;;;24.58;31.35;101974.06;6068027;23;20030;-70
2022/08/07 11:37:01;;;;;;;5.80;5.50;;;;;;;24.82;32.00;101976.34;6050018;23;20561;-70
2022/08/07 11:39:52;;;;;;;5.20;5.00;;;;;;;24.80;32.89;101981.84;6077453;23;20026;-71
2022/08/07 11:42:51;;;;;;;5.25;5.05;;;;;;;24.87;32.43;101980.25;6063530;23;20010;-70
2022/08/07 11:45:31;;;;;;;5.43;5.22;;;;;;;25.02;32.45;101983.38;6062359;23;20030;-70
2022/08/07 11:48:29;;;;;;;7.13;6.82;;;;;;;24.95;32.25;101986.78;6064726;23;20018;-70
2022/08/07 11:51:19;;;;;;;5.70;5.50;;;;;;;24.69;32.31;101998.06;6075852;23;20018;-70
2022/08/07 11:54:09;;;;;;;5.55;5.35;;;;;;;24.67;32.76;102000.91;6069725;23;20034;-70
2022/08/07 11:56:49;;;;;;;6.00;5.75;;;;;;;25.02;31.01;101993.28;6069348;23;20162;-70
2022/08/07 11:59:59;;;;;;;5.60;5.40;;;;;;;25.03;31.25;102000.31;6056445;23;20392;-70
2022/08/07 12:03:21;;;;;;;6.63;6.30;;;;;;;25.45;32.81;101971.25;6074119;23;20499;-69
2022/08/07 12:06:26;;;;;;;5.85;5.57;;;;;;;25.49;31.27;101939.56;6073868;23;20122;-70
2022/08/07 12:09:34;;;;;;;5.60;5.40;;;;;;;25.13;31.57;101935.84;6053709;23;20127;-69
2022/08/07 12:12:08;;;;;;;5.80;5.53;;;;;;;25.40;31.25;101983.47;6041340;23;20767;-70
2022/08/07 12:14:48;;;;;;;6.70;6.40;;;;;;;25.35;32.20;101991.94;6064849;23;20063;-69
2022/08/07 12:17:35;;;;;;;5.60;5.40;;;;;;;25.24;31.64;101970.66;6055688;23;20019;-70
2022/08/07 12:20:16;;;;;;;6.03;5.72;;;;;;;25.08;31.76;101979.28;6065678;23;20021;-69
2022/08/07 12:23:29;;;;;;;5.60;5.40;;;;;;;25.15;31.14;101987.59;6070797;23;20021;-71
2022/08/07 12:26:57;;;;;;;5.38;5.18;;;;;;;25.65;31.50;101984.63;6060037;23;20011;-70
2022/08/07 12:29:34;;;;;;;5.60;5.40;;;;;;;25.35;31.02;101945.44;6039211;23;20093;-72
2022/08/07 12:32:36;;;;;;;5.85;5.55;;;;;;;25.28;31.42;101986.31;6062409;23;20198;-70
2022/08/07 12:35:10;;;;;;;5.30;5.10;;;;;;;25.42;31.94;101970.72;6070035;23;20261;-70
2022/08/07 12:37:40;;;;;;;6.68;6.38;;;;;;;25.39;31.16;101895.75;6044966;23;20049;-70
2022/08/07 12:40:31;;;;;;;5.40;5.20;;;;;;;25.15;31.61;101926.63;6079973;23;20034;-72
2022/08/07 12:43:19;;;;;;;5.60;5.40;;;;;;;25.28;30.67;101931.75;6064940;23;20021;-71